Time;durP1;ratioP1;P1;durP2;ratioP2;P2;SDS_P1;SDS_P2;PMS_P1;PMS_P2;Temp;Humidity;BMP_temperature;BMP_pressure;BME280_temperature;BME280_humidity;BME280_pressure;Samples;Min_cycle;Max_cycle;Signal;HPM_P1;HPM_P2
2023/07/04 00:01:24;;;;;;;14.07;11.60;;;;;;;27.62;100.00;97326.91;4976762;28;20434;-68
2023/07/04 00:03:56;;;;;;;13.07;11.48;;;;;;;27.62;100.00;97329.63;4976686;28;20053;-69
2023/07/04 00:06:29;;;;;;;16.38;12.95;;;;;;;27.62;100.00;97329.63;4979640;28;20077;-68
2023/07/04 00:09:01;;;;;;;13.63;11.52;;;;;;;27.64;100.00;97321.13;4980530;28;20920;-68
2023/07/04 00:11:31;;;;;;;13.43;11.85;;;;;;;27.63;100.00;97320.34;4978692;28;20078;-68
2023/07/04 00:14:00;;;;;;;14.32;12.35;;;;;;;27.65;100.00;97326.25;4981518;28;20191;-68
2023/07/04 00:16:30;;;;;;;13.88;11.90;;;;;;;27.67;100.00;97323.16;4972914;28;20061;-68
2023/07/04 00:19:03;;;;;;;12.63;11.10;;;;;;;27.67;100.00;97312.28;4980144;28;20066;-68
2023/07/04 00:21:33;;;;;;;13.13;11.77;;;;;;;27.64;100.00;97321.94;4979217;28;20085;-68
2023/07/04 00:24:02;;;;;;;15.82;11.98;;;;;;;27.68;100.00;97322.84;4979583;28;20074;-68
2023/07/04 00:26:31;;;;;;;13.25;11.77;;;;;;;27.66;100.00;97319.66;4978419;28;20455;-68
2023/07/04 00:29:00;;;;;;;14.93;12.63;;;;;;;27.67;100.00;97323.97;4980793;28;20280;-68
2023/07/04 00:31:32;;;;;;;15.52;13.30;;;;;;;27.67;100.00;97323.16;4976414;28;20042;-68
2023/07/04 00:34:02;;;;;;;15.10;12.25;;;;;;;27.68;100.00;97314.69;4980265;28;20061;-69
2023/07/04 00:36:34;;;;;;;16.67;12.23;;;;;;;27.69;100.00;97316.28;4971191;28;20054;-68
2023/07/04 00:39:04;;;;;;;20.38;12.05;;;;;;;27.68;100.00;97314.69;4978847;28;20494;-68
2023/07/04 00:41:35;;;;;;;12.43;10.93;;;;;;;27.76;100.00;97325.78;4975039;28;20487;-68
2023/07/04 00:44:13;;;;;;;12.35;10.25;;;;;;;27.78;100.00;97326.25;4976477;28;20125;-68
2023/07/04 00:46:56;;;;;;;11.40;9.27;;;;;;;27.78;100.00;97331.72;4976567;28;20050;-68
2023/07/04 00:49:42;;;;;;;11.98;9.05;;;;;;;27.83;100.00;97329.56;4978060;28;20046;-67
2023/07/04 00:52:25;;;;;;;9.25;8.30;;;;;;;27.84;100.00;97333.09;4975993;28;20481;-68
2023/07/04 00:54:58;;;;;;;10.00;8.98;;;;;;;27.85;100.00;97323.78;4974882;28;20464;-68
2023/07/04 00:57:31;;;;;;;9.90;8.90;;;;;;;27.85;100.00;97324.56;4976904;28;20077;-68
2023/07/04 01:00:16;;;;;;;9.60;8.25;;;;;;;27.86;100.00;97318.00;4973615;28;20051;-68
2023/07/04 01:02:52;;;;;;;11.13;9.20;;;;;;;27.90;100.00;97310.75;4977592;28;20054;-68
2023/07/04 01:06:00;;;;;;;10.20;8.95;;;;;;;27.94;100.00;97311.66;4977978;28;20043;-68
2023/07/04 01:08:36;;;;;;;10.45;8.98;;;;;;;28.01;100.00;97316.56;4976597;28;20038;-68
2023/07/04 01:11:10;;;;;;;16.15;9.40;;;;;;;28.02;100.00;97307.22;4978687;28;20054;-68
2023/07/04 01:13:43;;;;;;;10.18;9.13;;;;;;;28.09;100.00;97305.56;4978338;28;20500;-68
2023/07/04 01:16:17;;;;;;;10.95;9.20;;;;;;;28.11;100.00;97310.66;4978742;28;20081;-68
2023/07/04 01:18:52;;;;;;;12.15;8.82;;;;;;;28.12;100.00;97315.78;4975976;28;20050;-68
2023/07/04 01:21:25;;;;;;;12.73;9.13;;;;;;;28.14;100.00;97315.44;4976618;28;20065;-68
2023/07/04 01:24:00;;;;;;;10.38;8.60;;;;;;;28.16;100.00;97318.59;4977005;28;20058;-68
2023/07/04 01:26:43;;;;;;;11.50;9.57;;;;;;;28.22;100.00;97308.28;4935704;28;20050;-68
2023/07/04 01:29:16;;;;;;;11.40;9.10;;;;;;;28.27;100.00;97310.78;4975992;28;20042;-68
2023/07/04 01:31:46;;;;;;;10.82;9.43;;;;;;;28.30;100.00;97312.81;4975285;28;20150;-68
2023/07/04 01:34:20;;;;;;;11.90;9.13;;;;;;;28.36;100.00;97314.19;4979237;28;20057;-68
2023/07/04 01:36:53;;;;;;;11.07;9.85;;;;;;;28.41;100.00;97316.69;4977605;28;20488;-68
2023/07/04 01:39:23;;;;;;;15.73;9.68;;;;;;;28.47;100.00;97326.19;4974268;28;20429;-67
2023/07/04 01:41:52;;;;;;;10.05;9.05;;;;;;;28.55;100.00;97326.06;4978382;28;20537;-67
2023/07/04 01:44:25;;;;;;;10.63;9.07;;;;;;;28.63;99.78;97332.56;4977684;28;20505;-68
2023/07/04 01:46:55;;;;;;;9.25;7.90;;;;;;;28.75;98.76;97323.59;4973842;28;20375;-69
2023/07/04 01:49:25;;;;;;;10.90;8.95;;;;;;;28.88;97.96;97328.66;4977147;28;20429;-68
2023/07/04 01:51:54;;;;;;;8.93;8.02;;;;;;;29.04;97.42;97328.72;4976115;28;20556;-68
2023/07/04 01:54:26;;;;;;;9.37;8.30;;;;;;;29.24;95.80;97325.03;4972036;28;20046;-68
2023/07/04 01:56:56;;;;;;;8.45;7.63;;;;;;;29.37;94.90;97326.59;4966395;28;20123;-68
2023/07/04 01:59:25;;;;;;;9.30;7.75;;;;;;;29.64;93.62;97318.72;4978146;28;20085;-68
2023/07/04 02:01:55;;;;;;;10.05;8.20;;;;;;;30.04;91.29;97330.31;4976405;28;20047;-68
2023/07/04 02:04:24;;;;;;;8.57;7.78;;;;;;;30.37;89.17;97342.78;4977278;28;20592;-68
2023/07/04 02:06:56;;;;;;;9.90;8.05;;;;;;;30.67;87.47;97341.97;4977791;28;20034;-68
2023/07/04 02:09:26;;;;;;;9.15;7.13;;;;;;;30.95;85.86;97346.47;4971907;28;20050;-68
2023/07/04 02:11:55;;;;;;;9.68;6.65;;;;;;;31.16;85.00;97339.53;4980245;28;20054;-68
2023/07/04 02:14:25;;;;;;;7.32;6.40;;;;;;;31.32;83.44;97342.22;4968427;28;20038;-68
2023/07/04 02:16:55;;;;;;;7.03;6.32;;;;;;;31.39;81.61;97349.75;4967986;28;20466;-67
2023/07/04 02:19:25;;;;;;;6.50;5.90;;;;;;;31.44;81.56;97347.53;4979207;28;20057;-68
2023/07/04 02:21:55;;;;;;;6.05;5.45;;;;;;;31.47;82.01;97351.47;4979311;28;20056;-68
2023/07/04 02:24:24;;;;;;;6.85;5.82;;;;;;;31.35;84.25;97351.63;4978084;28;20051;-68
2023/07/04 02:26:54;;;;;;;6.43;5.72;;;;;;;31.17;83.32;97346.59;4973609;28;20047;-68
2023/07/04 02:29:23;;;;;;;9.55;5.80;;;;;;;31.28;81.99;97349.56;4971999;28;20066;-68
2023/07/04 02:31:53;;;;;;;6.18;5.57;;;;;;;31.23;83.05;97357.25;4975014;28;20050;-68
2023/07/04 02:34:23;;;;;;;8.48;5.15;;;;;;;31.30;82.33;97357.38;4977398;28;20062;-68
2023/07/04 02:36:53;;;;;;;5.70;5.20;;;;;;;31.49;81.75;97360.91;4961364;28;20113;-68
2023/07/04 02:39:26;;;;;;;5.57;5.00;;;;;;;31.70;81.14;97363.28;4976681;28;20141;-69
2023/07/04 02:41:55;;;;;;;5.20;4.60;;;;;;;31.85;79.87;97362.41;4976973;28;20816;-68
2023/07/04 02:44:26;;;;;;;5.22;4.32;;;;;;;32.05;77.97;97358.44;4977687;28;20046;-68
2023/07/04 02:46:56;;;;;;;5.57;4.18;;;;;;;32.02;77.20;97370.16;4978949;28;20075;-68
2023/07/04 02:49:25;;;;;;;6.65;4.43;;;;;;;32.14;76.92;97373.88;4974168;28;20471;-69
2023/07/04 02:51:57;;;;;;;6.00;4.23;;;;;;;32.14;77.50;97373.88;4970244;28;20047;-68
2023/07/04 02:54:28;;;;;;;5.93;4.13;;;;;;;32.24;76.33;97381.50;4991205;28;20290;-68
2023/07/04 02:56:57;;;;;;;6.03;4.25;;;;;;;32.36;77.30;97375.81;4977138;28;20054;-68
2023/07/04 02:59:29;;;;;;;4.75;4.18;;;;;;;32.40;76.62;97371.19;4975294;28;20059;-68
2023/07/04 03:02:00;;;;;;;5.53;4.20;;;;;;;32.27;75.61;97370.59;4975940;28;20151;-68
2023/07/04 03:04:32;;;;;;;7.35;4.78;;;;;;;32.22;74.97;97368.16;4973027;28;20697;-68
2023/07/04 03:07:06;;;;;;;6.57;4.30;;;;;;;32.25;75.63;97369.38;4972665;28;20069;-69
2023/07/04 03:09:37;;;;;;;5.47;4.20;;;;;;;32.14;76.14;97371.13;4973843;28;20050;-68
2023/07/04 03:12:07;;;;;;;5.15;4.22;;;;;;;32.03;75.49;97365.47;4971547;28;20050;-69
2023/07/04 03:14:37;;;;;;;5.40;4.60;;;;;;;31.98;75.91;97366.56;4968019;28;20050;-69
2023/07/04 03:17:06;;;;;;;6.25;5.38;;;;;;;32.01;77.00;97365.81;4974702;28;20055;-68
2023/07/04 03:19:38;;;;;;;5.68;4.70;;;;;;;31.96;77.37;97352.41;4976430;28;20042;-68
2023/07/04 03:22:08;;;;;;;8.80;5.28;;;;;;;31.89;77.58;97371.47;4975973;28;20042;-69
2023/07/04 03:24:37;;;;;;;5.63;4.82;;;;;;;31.90;77.61;97369.53;4974363;28;20050;-68
2023/07/04 03:27:07;;;;;;;6.55;4.75;;;;;;;31.65;78.59;97364.38;4970467;28;20045;-68
2023/07/04 03:29:37;;;;;;;9.30;5.97;;;;;;;31.55;78.92;97366.94;4976237;28;20584;-68
2023/07/04 03:32:08;;;;;;;7.93;5.43;;;;;;;31.64;79.31;97368.25;4975542;28;20437;-68
2023/07/04 03:34:38;;;;;;;6.50;5.35;;;;;;;31.57;79.11;97376.34;4977659;28;20046;-67
2023/07/04 03:37:07;;;;;;;6.18;5.57;;;;;;;31.56;78.61;97384.91;4973800;28;20047;-68
2023/07/04 03:39:37;;;;;;;8.70;5.80;;;;;;;31.46;78.99;97393.69;4972040;28;20127;-67
2023/07/04 03:42:07;;;;;;;8.18;5.90;;;;;;;31.53;79.41;97394.63;4974605;28;20082;-67
2023/07/04 03:44:37;;;;;;;7.60;5.65;;;;;;;31.61;79.74;97384.63;4976631;28;20054;-67
2023/07/04 03:47:08;;;;;;;8.82;6.28;;;;;;;31.69;79.49;97394.56;4977131;28;20057;-66
2023/07/04 03:49:37;;;;;;;8.07;6.13;;;;;;;31.72;78.87;97393.06;4974901;28;20672;-68
2023/07/04 03:52:06;;;;;;;9.02;6.35;;;;;;;31.85;79.83;97400.75;4977029;28;20046;-67
2023/07/04 03:54:37;;;;;;;9.45;6.55;;;;;;;31.80;79.70;97403.78;4972030;28;20054;-68
2023/07/04 03:57:06;;;;;;;8.32;6.30;;;;;;;31.91;79.50;97409.47;4977441;28;20045;-67
2023/07/04 03:59:36;;;;;;;9.38;5.70;;;;;;;32.03;79.99;97412.03;4976725;28;20058;-67
2023/07/04 04:02:05;;;;;;;9.43;6.55;;;;;;;32.05;78.63;97421.47;4974666;28;20061;-67
2023/07/04 04:04:38;;;;;;;10.60;6.32;;;;;;;32.04;77.76;97430.81;4973783;28;20498;-67
2023/07/04 04:07:10;;;;;;;7.85;6.88;;;;;;;32.13;77.16;97427.13;4975612;28;20069;-67
2023/07/04 04:09:40;;;;;;;10.60;7.05;;;;;;;32.06;77.66;97425.00;4971638;28;20054;-67
2023/07/04 04:12:10;;;;;;;8.90;7.25;;;;;;;32.00;79.46;97434.66;4978097;28;20410;-65
2023/07/04 04:14:40;;;;;;;12.70;7.80;;;;;;;31.93;79.19;97429.84;4974646;28;20051;-65
2023/07/04 04:17:09;;;;;;;9.95;7.20;;;;;;;31.98;79.60;97439.72;4973942;28;20145;-64
2023/07/04 04:19:38;;;;;;;15.10;7.30;;;;;;;32.00;81.26;97451.09;4977648;28;20629;-64
2023/07/04 04:22:08;;;;;;;12.43;8.30;;;;;;;31.96;81.01;97453.78;4978236;28;20584;-64
2023/07/04 04:24:38;;;;;;;9.43;7.93;;;;;;;31.98;82.67;97456.16;4970613;28;20057;-65
2023/07/04 04:27:11;;;;;;;9.57;7.82;;;;;;;32.04;83.57;97460.97;4972037;28;20145;-65
2023/07/04 04:29:41;;;;;;;14.10;8.38;;;;;;;32.05;83.25;97473.50;4975914;28;20805;-65
2023/07/04 04:32:10;;;;;;;11.82;9.00;;;;;;;31.98;82.10;97476.13;4973885;28;20047;-64
2023/07/04 04:34:40;;;;;;;11.38;8.45;;;;;;;31.87;83.37;97488.00;4974817;28;20046;-64
2023/07/04 04:37:10;;;;;;;16.85;9.55;;;;;;;31.73;83.90;97485.81;4975730;28;20144;-65
2023/07/04 04:39:39;;;;;;;10.68;9.50;;;;;;;31.65;85.08;97484.84;4965970;28;20082;-64
2023/07/04 04:42:14;;;;;;;15.43;10.13;;;;;;;31.67;88.26;97491.91;4976631;28;20049;-66
2023/07/04 04:44:43;;;;;;;11.65;9.95;;;;;;;31.60;87.82;97496.06;4973167;28;20067;-65
2023/07/04 04:47:12;;;;;;;12.70;9.90;;;;;;;31.54;86.26;97492.03;4973300;28;20050;-65
2023/07/04 04:49:42;;;;;;;11.93;10.32;;;;;;;31.58;89.84;97500.34;4973122;28;20086;-65
2023/07/04 04:52:12;;;;;;;18.77;10.43;;;;;;;31.59;89.09;97494.50;4976358;28;20042;-65
2023/07/04 04:54:44;;;;;;;14.07;11.05;;;;;;;31.63;87.39;97491.84;4974403;28;20054;-65
2023/07/04 04:57:15;;;;;;;13.32;10.95;;;;;;;31.76;86.09;97496.03;4972143;28;20043;-66
2023/07/04 04:59:48;;;;;;;12.82;10.95;;;;;;;31.93;83.68;97509.28;4956864;28;20046;-65
2023/07/04 05:02:18;;;;;;;13.40;11.07;;;;;;;31.89;85.66;97513.91;4951609;28;20671;-66
2023/07/04 05:04:47;;;;;;;15.82;10.57;;;;;;;31.85;88.28;97518.53;4974914;28;20051;-65
2023/07/04 05:07:18;;;;;;;12.85;11.02;;;;;;;31.74;90.00;97519.44;4972483;28;20735;-65
2023/07/04 05:09:48;;;;;;;15.50;11.68;;;;;;;31.62;86.46;97520.38;4972665;28;20101;-66
2023/07/04 05:12:18;;;;;;;15.77;13.02;;;;;;;31.66;87.36;97523.97;4957190;28;20058;-66
2023/07/04 05:14:48;;;;;;;16.08;12.82;;;;;;;31.45;87.66;97534.44;4974321;28;20050;-65
2023/07/04 05:17:18;;;;;;;11.10;9.30;;;;;;;31.04;86.49;97528.41;4971890;28;20434;-66
2023/07/04 05:19:49;;;;;;;13.63;6.45;;;;;;;31.03;84.69;97534.22;4973663;28;20087;-64
2023/07/04 05:22:20;;;;;;;10.15;5.53;;;;;;;31.06;83.64;97560.88;4966408;28;20093;-64
2023/07/04 05:24:50;;;;;;;4.78;3.85;;;;;;;30.74;83.07;97546.38;4974694;28;20138;-67
2023/07/04 05:27:19;;;;;;;6.60;3.22;;;;;;;30.52;83.32;97546.97;4979547;28;20072;-66
2023/07/04 05:29:49;;;;;;;6.97;3.67;;;;;;;30.62;83.79;97551.94;4978184;28;20480;-64
2023/07/04 05:32:19;;;;;;;4.88;3.03;;;;;;;30.70;83.65;97549.03;4970151;28;20134;-64
2023/07/04 05:34:48;;;;;;;8.25;3.80;;;;;;;30.58;82.54;97551.81;4975755;28;20043;-63
2023/07/04 05:37:18;;;;;;;5.28;3.10;;;;;;;30.73;83.52;97542.06;4979438;28;20528;-64
2023/07/04 05:39:47;;;;;;;4.28;3.20;;;;;;;30.68;82.87;97545.06;4961858;28;20078;-64
2023/07/04 05:42:17;;;;;;;4.35;2.90;;;;;;;30.63;81.78;97546.09;4971100;28;20072;-64
2023/07/04 05:44:47;;;;;;;3.05;2.78;;;;;;;30.59;81.37;97545.22;4973296;28;20161;-64
2023/07/04 05:47:16;;;;;;;3.88;2.60;;;;;;;30.65;82.99;97535.63;4961110;28;20054;-65
2023/07/04 05:49:46;;;;;;;4.03;3.38;;;;;;;30.75;83.21;97540.56;4976477;28;20134;-64
2023/07/04 05:52:15;;;;;;;5.72;3.00;;;;;;;30.74;80.72;97538.97;4970767;28;20039;-65
2023/07/04 05:54:48;;;;;;;7.80;3.47;;;;;;;30.78;82.77;97539.06;4971504;28;20123;-65
2023/07/04 05:57:18;;;;;;;5.28;3.60;;;;;;;30.91;83.26;97534.28;4983904;28;20062;-66
2023/07/04 05:59:48;;;;;;;4.35;2.97;;;;;;;30.77;81.87;97545.69;4954833;28;20360;-66
2023/07/04 06:02:19;;;;;;;4.55;1.77;;;;;;;30.82;80.22;97548.16;4961805;28;20046;-65
2023/07/04 06:04:52;;;;;;;2.28;1.88;;;;;;;30.70;81.41;97538.09;4964691;28;20046;-66
2023/07/04 06:07:23;;;;;;;5.47;1.90;;;;;;;30.57;81.96;97544.00;4972444;28;20686;-65
2023/07/04 06:09:53;;;;;;;3.03;1.88;;;;;;;30.57;82.91;97544.78;4974982;28;20115;-67
2023/07/04 06:12:23;;;;;;;4.47;1.80;;;;;;;30.56;81.92;97543.19;4959276;28;20047;-66
2023/07/04 06:14:52;;;;;;;3.22;1.92;;;;;;;30.57;81.47;97539.31;4958974;28;20055;-66
2023/07/04 06:17:22;;;;;;;2.97;1.85;;;;;;;30.40;82.17;97528.69;4950911;28;20054;-66
2023/07/04 06:19:52;;;;;;;5.88;2.17;;;;;;;30.46;83.39;97531.97;4947248;28;20047;-66
2023/07/04 06:22:21;;;;;;;7.32;1.80;;;;;;;30.51;83.18;97535.25;4972787;28;20069;-67
2023/07/04 06:24:52;;;;;;;4.85;2.13;;;;;;;30.52;80.63;97525.91;4972610;28;20561;-67
2023/07/04 06:27:24;;;;;;;2.33;1.75;;;;;;;30.64;79.73;97519.56;4972523;28;20154;-69
2023/07/04 06:29:55;;;;;;;3.55;1.80;;;;;;;30.75;81.23;97513.25;4971184;28;20069;-66
2023/07/04 06:32:25;;;;;;;3.72;2.08;;;;;;;30.83;77.93;97499.72;4977131;28;21619;-69
2023/07/04 06:34:54;;;;;;;3.58;1.90;;;;;;;30.92;76.39;97495.66;4956516;28;20051;-67
2023/07/04 06:37:23;;;;;;;5.53;2.58;;;;;;;31.19;74.34;97492.03;4969252;28;20055;-69
2023/07/04 06:39:53;;;;;;;6.40;2.30;;;;;;;31.21;71.60;97491.66;4974594;28;20066;-69
2023/07/04 06:42:22;;;;;;;5.03;2.20;;;;;;;31.33;71.56;97488.84;4976659;28;20050;-71
2023/07/04 06:44:58;;;;;;;4.32;1.95;;;;;;;31.46;70.99;97484.03;4958618;28;20352;-73
2023/07/04 06:47:28;;;;;;;3.33;1.95;;;;;;;31.73;73.10;97488.53;4971056;28;20047;-74
2023/07/04 06:49:57;;;;;;;6.03;2.20;;;;;;;31.88;68.12;97498.63;4966514;28;20047;-69
2023/07/04 06:52:26;;;;;;;7.45;2.05;;;;;;;32.00;68.24;97481.22;4963144;28;20926;-69
2023/07/04 06:54:57;;;;;;;6.72;2.00;;;;;;;32.04;70.81;97482.88;4966761;28;20143;-69
2023/07/04 06:57:26;;;;;;;6.93;2.30;;;;;;;31.97;69.52;97476.47;4972526;28;20054;-64
2023/07/04 06:59:56;;;;;;;3.88;2.78;;;;;;;31.69;70.15;97470.47;4972378;28;20062;-72
2023/07/04 07:02:26;;;;;;;4.78;3.08;;;;;;;31.67;70.23;97462.59;4965467;28;20469;-69
2023/07/04 07:04:57;;;;;;;6.00;3.40;;;;;;;31.59;71.05;97469.88;4965717;28;20049;-71
2023/07/04 07:07:28;;;;;;;7.78;3.72;;;;;;;31.64;72.26;97460.59;4961325;28;20146;-68
2023/07/04 07:09:58;;;;;;;5.65;4.15;;;;;;;31.65;71.95;97460.19;4960244;28;20046;-69
2023/07/04 07:12:29;;;;;;;5.07;4.07;;;;;;;31.72;72.43;97461.50;4964007;28;20054;-70
2023/07/04 07:14:59;;;;;;;4.75;4.07;;;;;;;31.84;72.27;97451.19;4967780;28;20054;-70
2023/07/04 07:17:33;;;;;;;6.13;4.60;;;;;;;31.81;72.09;97460.16;4970725;28;20051;-67
2023/07/04 07:20:07;;;;;;;8.77;4.88;;;;;;;31.85;72.64;97454.72;4968651;28;20054;-66
2023/07/04 07:22:37;;;;;;;5.80;4.55;;;;;;;31.87;73.30;97449.66;4978330;28;20153;-66
2023/07/04 07:25:06;;;;;;;6.15;3.90;;;;;;;31.93;74.27;97442.75;4964819;28;20139;-67
2023/07/04 07:27:36;;;;;;;7.70;3.88;;;;;;;31.95;72.44;97437.72;4961459;28;20054;-66
2023/07/04 07:30:06;;;;;;;5.10;3.72;;;;;;;31.99;72.13;97449.53;4963130;28;20656;-68
2023/07/04 07:32:36;;;;;;;4.93;3.40;;;;;;;31.93;71.60;97446.28;4974493;28;20051;-67
2023/07/04 07:35:07;;;;;;;6.50;3.40;;;;;;;31.86;70.69;97439.88;4973623;28;20045;-68
2023/07/04 07:37:38;;;;;;;3.38;3.08;;;;;;;31.79;71.12;97440.53;4967221;28;20051;-67
2023/07/04 07:40:08;;;;;;;4.85;3.20;;;;;;;31.62;71.50;97435.50;4964614;28;20065;-67
2023/07/04 07:42:38;;;;;;;5.78;3.70;;;;;;;31.45;71.18;97442.16;4947223;28;20493;-67
2023/07/04 07:45:08;;;;;;;6.47;3.95;;;;;;;31.38;70.73;97427.56;4994330;28;20399;-66
2023/07/04 07:47:38;;;;;;;3.55;3.15;;;;;;;31.29;71.49;97421.50;4991857;28;20049;-67
2023/07/04 07:50:08;;;;;;;3.92;2.78;;;;;;;31.26;71.83;97422.19;4988479;28;20061;-68
2023/07/04 07:52:37;;;;;;;3.92;3.00;;;;;;;31.38;72.29;97420.09;4978232;28;20190;-67
2023/07/04 07:55:08;;;;;;;4.20;3.33;;;;;;;31.51;72.52;97405.13;4984126;28;20137;-68
2023/07/04 07:57:38;;;;;;;4.15;2.63;;;;;;;31.57;71.78;97401.00;4994526;28;20090;-68
2023/07/04 08:00:07;;;;;;;6.00;3.00;;;;;;;31.58;71.50;97396.31;4990987;28;20073;-68
2023/07/04 08:02:38;;;;;;;4.65;2.63;;;;;;;31.62;70.08;97391.69;4984567;28;20050;-68
2023/07/04 08:05:08;;;;;;;2.70;2.45;;;;;;;31.66;71.86;97398.03;4989002;28;20432;-68
2023/07/04 08:07:38;;;;;;;3.63;2.60;;;;;;;31.66;71.31;97387.06;4985273;28;20055;-65
2023/07/04 08:10:07;;;;;;;3.00;2.72;;;;;;;31.68;70.50;97384.00;4988710;28;20046;-67
2023/07/04 08:12:36;;;;;;;3.03;2.80;;;;;;;31.67;71.02;97374.97;4990027;28;20050;-67
2023/07/04 08:15:07;;;;;;;4.78;2.53;;;;;;;31.70;72.14;97376.97;4992398;28;20544;-67
2023/07/04 08:17:38;;;;;;;7.13;2.90;;;;;;;31.77;71.70;97365.38;4978352;28;20061;-67
2023/07/04 08:20:08;;;;;;;5.88;2.95;;;;;;;31.81;70.89;97361.56;4982834;28;20069;-67
2023/07/04 08:22:38;;;;;;;3.78;2.80;;;;;;;31.84;71.13;97360.81;4986290;28;20101;-67
2023/07/04 08:25:08;;;;;;;2.90;2.58;;;;;;;32.15;69.38;97350.81;4987516;28;20065;-67
2023/07/04 08:27:37;;;;;;;4.28;3.28;;;;;;;32.38;67.13;97355.13;4993190;28;20055;-67
2023/07/04 08:30:07;;;;;;;7.07;2.75;;;;;;;32.51;64.25;97355.69;4997641;28;20168;-67
2023/07/04 08:32:37;;;;;;;7.43;2.95;;;;;;;32.67;64.00;97348.13;4994575;28;20662;-67
2023/07/04 08:35:07;;;;;;;7.47;2.95;;;;;;;32.64;63.49;97342.59;4983645;28;20046;-66
2023/07/04 08:37:37;;;;;;;5.85;3.42;;;;;;;32.59;63.20;97349.16;4971188;28;20058;-67
2023/07/04 08:40:08;;;;;;;5.68;3.33;;;;;;;32.52;62.90;97336.16;4991790;28;20170;-67
2023/07/04 08:42:39;;;;;;;5.25;3.35;;;;;;;32.47;62.23;97330.19;4995806;28;20053;-67
2023/07/04 08:45:20;;;;;;;7.18;3.03;;;;;;;32.40;62.70;97321.84;4989716;28;20096;-67
2023/07/04 08:47:51;;;;;;;9.18;3.67;;;;;;;32.22;63.58;97321.56;4988250;28;20091;-67
2023/07/04 08:50:35;;;;;;;6.43;3.35;;;;;;;32.34;65.48;97307.69;4997809;28;22202;-67
2023/07/04 08:53:17;;;;;;;10.52;3.00;;;;;;;32.34;63.65;97302.19;4991750;28;20045;-67
2023/07/04 08:55:54;;;;;;;3.65;2.80;;;;;;;32.54;64.05;97289.16;4987533;28;20039;-67
2023/07/04 08:58:31;;;;;;;7.65;2.78;;;;;;;32.53;63.79;97293.84;4984554;28;20124;-68
2023/07/04 09:01:10;;;;;;;6.63;2.90;;;;;;;32.89;61.78;97295.16;4987473;28;20050;-69
2023/07/04 09:03:55;;;;;;;4.93;2.42;;;;;;;33.06;62.41;97282.03;4996105;28;20050;-70
2023/07/04 09:06:47;;;;;;;3.63;2.53;;;;;;;33.22;60.56;97288.91;4991055;28;20478;-70
2023/07/04 09:09:20;;;;;;;7.43;3.55;;;;;;;33.31;61.42;97280.38;4989250;28;20091;-70
2023/07/04 09:11:51;;;;;;;4.40;2.42;;;;;;;33.35;60.44;97282.00;4994668;28;20050;-69
2023/07/04 09:14:45;;;;;;;4.18;2.35;;;;;;;33.35;59.42;97273.78;4990008;28;20041;-70
2023/07/04 09:17:29;;;;;;;6.25;2.72;;;;;;;33.46;59.56;97270.34;4981440;28;20093;-70
2023/07/04 09:20:00;;;;;;;3.42;2.05;;;;;;;33.54;60.32;97272.00;4985978;28;20074;-71
2023/07/04 09:22:30;;;;;;;6.20;2.80;;;;;;;33.63;61.44;97262.28;4990443;28;20713;-70
2023/07/04 09:25:00;;;;;;;4.75;2.70;;;;;;;33.75;60.58;97259.28;4982574;28;20053;-72
2023/07/04 09:27:31;;;;;;;5.88;2.42;;;;;;;33.74;59.73;97256.91;4980537;28;20595;-68
2023/07/04 09:30:03;;;;;;;5.05;3.05;;;;;;;33.80;60.03;97245.19;4982405;28;20069;-71
2023/07/04 09:32:33;;;;;;;7.32;2.78;;;;;;;33.89;61.46;97246.84;4993715;28;20058;-70
2023/07/04 09:35:05;;;;;;;6.25;3.25;;;;;;;34.01;61.99;97241.03;4992413;28;20054;-69
2023/07/04 09:37:56;;;;;;;8.52;4.00;;;;;;;33.98;58.94;97231.59;4987483;28;20051;-71
2023/07/04 09:40:50;;;;;;;5.78;3.88;;;;;;;34.05;58.26;97223.41;4996639;28;20165;-72
2023/07/04 09:43:29;;;;;;;7.20;5.10;;;;;;;34.08;57.44;97219.13;4993594;28;20054;-72
2023/07/04 09:46:28;;;;;;;7.35;5.78;;;;;;;34.20;58.36;97224.31;4986338;28;20545;-72
2023/07/04 09:49:28;;;;;;;7.28;5.90;;;;;;;34.26;58.49;97218.06;4993704;28;20050;-72
2023/07/04 09:52:03;;;;;;;9.32;6.03;;;;;;;34.23;59.29;97205.09;4983339;28;20366;-70
2023/07/04 09:54:36;;;;;;;9.95;6.40;;;;;;;34.36;58.05;97194.56;4983550;28;20472;-71
2023/07/04 09:57:24;;;;;;;16.30;10.45;;;;;;;34.36;58.10;97193.75;4992101;28;20118;-71
2023/07/04 10:00:15;;;;;;;11.35;9.05;;;;;;;34.35;57.26;97203.19;4974512;28;20047;-71
2023/07/04 10:02:48;;;;;;;12.07;9.50;;;;;;;34.46;57.06;97187.53;4983587;28;20046;-70
2023/07/04 10:05:37;;;;;;;13.30;9.10;;;;;;;34.32;58.43;97168.22;4984704;28;20100;-71
2023/07/04 10:08:10;;;;;;;11.77;8.65;;;;;;;34.31;59.67;97164.69;4989267;28;20438;-73
2023/07/04 10:10:57;;;;;;;10.95;8.52;;;;;;;34.42;60.55;97153.75;4992719;28;20058;-69
2023/07/04 10:13:37;;;;;;;14.60;8.02;;;;;;;34.43;57.86;97158.06;4984344;28;20070;-72
2023/07/04 10:16:23;;;;;;;9.20;7.47;;;;;;;34.47;58.53;97153.38;4983548;28;20049;-70
2023/07/04 10:19:09;;;;;;;10.85;7.10;;;;;;;34.50;59.88;97156.13;4986461;28;20046;-72
2023/07/04 10:21:48;;;;;;;10.07;7.97;;;;;;;34.34;57.19;97152.94;4952499;28;20047;-73
2023/07/04 10:24:20;;;;;;;13.52;8.30;;;;;;;34.33;57.25;97153.31;4964699;28;20046;-75
2023/07/04 10:27:00;;;;;;;10.85;7.45;;;;;;;34.32;57.23;97149.78;4952717;28;20820;-76
2023/07/04 10:29:37;;;;;;;10.32;8.15;;;;;;;34.35;57.29;97148.97;4990429;28;20176;-74
2023/07/04 10:32:13;;;;;;;13.88;8.52;;;;;;;34.36;57.93;97141.53;4985035;28;20050;-72
2023/07/04 10:34:47;;;;;;;9.32;8.10;;;;;;;34.34;58.08;97152.94;4995833;28;20049;-73
2023/07/04 10:37:22;;;;;;;15.48;7.93;;;;;;;34.33;58.05;97150.56;4990820;28;20119;-71
2023/07/04 10:39:57;;;;;;;12.38;8.23;;;;;;;34.37;57.91;97146.66;4990360;28;20496;-72
2023/07/04 10:42:36;;;;;;;10.75;8.90;;;;;;;34.32;59.94;97148.97;4991374;28;20153;-70
2023/07/04 10:45:09;;;;;;;10.95;7.90;;;;;;;34.36;58.90;97145.06;4990836;28;20460;-75
2023/07/04 10:47:41;;;;;;;12.57;8.68;;;;;;;34.38;58.18;97150.97;4981635;28;20085;-70
2023/07/04 10:50:22;;;;;;;12.10;8.32;;;;;;;34.37;59.51;97160.41;4992213;28;20456;-72
2023/07/04 10:52:52;;;;;;;12.93;9.45;;;;;;;34.36;58.99;97156.06;4985598;28;20046;-73
2023/07/04 10:55:30;;;;;;;12.90;8.82;;;;;;;34.38;58.48;97163.94;4992474;28;20046;-71
2023/07/04 10:58:14;;;;;;;10.27;8.95;;;;;;;34.35;58.64;97159.97;4990992;28;20053;-72
2023/07/04 11:01:13;;;;;;;11.70;8.75;;;;;;;34.36;58.75;97155.28;4986642;28;20050;-71
2023/07/04 11:04:09;;;;;;;13.85;7.43;;;;;;;34.38;59.29;97147.44;4989628;28;20549;-73
2023/07/04 11:06:44;;;;;;;10.80;6.35;;;;;;;34.35;58.58;97154.47;4974269;28;20660;-73
2023/07/04 11:09:17;;;;;;;8.35;6.13;;;;;;;34.32;58.73;97159.97;4979073;28;20053;-73
2023/07/04 11:11:50;;;;;;;10.05;6.75;;;;;;;34.26;57.85;97152.09;4992738;28;20050;-72
2023/07/04 11:14:31;;;;;;;9.23;6.38;;;;;;;34.27;58.04;97147.38;4994292;28;20061;-74
2023/07/04 11:17:05;;;;;;;7.97;5.78;;;;;;;34.25;58.77;97150.53;4994257;28;20057;-75
2023/07/04 11:19:35;;;;;;;10.05;5.93;;;;;;;34.32;59.35;97149.78;4995085;28;20066;-69
2023/07/04 11:22:04;;;;;;;10.98;6.47;;;;;;;34.29;56.58;97156.03;4994006;28;20046;-71
2023/07/04 11:24:45;;;;;;;10.35;7.00;;;;;;;34.27;55.96;97148.16;4995034;28;20053;-76
2023/07/04 11:27:29;;;;;;;9.85;7.80;;;;;;;34.32;56.69;97144.28;4989373;28;20442;-74
2023/07/04 11:30:05;;;;;;;12.88;8.25;;;;;;;34.24;58.68;97143.44;4984300;28;20042;-74
2023/07/04 11:32:40;;;;;;;10.70;8.55;;;;;;;34.23;59.09;97138.34;4989929;28;20435;-71
2023/07/04 11:35:15;;;;;;;15.90;9.13;;;;;;;34.22;59.95;97145.78;4994246;28;20066;-69
2023/07/04 11:38:02;;;;;;;12.75;10.10;;;;;;;34.22;59.91;97139.50;4990930;28;20054;-71
2023/07/04 11:40:55;;;;;;;14.35;10.77;;;;;;;34.21;60.92;97138.72;4992888;28;20046;-73
2023/07/04 11:43:34;;;;;;;15.48;10.88;;;;;;;34.21;62.82;97133.22;4992473;28;20176;-73
2023/07/04 11:46:05;;;;;;;14.57;12.65;;;;;;;34.26;62.18;97121.84;4993800;28;20060;-72
2023/07/04 11:48:50;;;;;;;18.80;13.93;;;;;;;34.26;63.05;97129.31;4982201;28;20046;-69
2023/07/04 11:51:24;;;;;;;17.70;12.95;;;;;;;34.23;63.30;97119.09;4989979;28;20089;-71
2023/07/04 11:54:00;;;;;;;15.55;12.18;;;;;;;34.16;61.95;97113.53;4979599;28;20565;-73